Time;durP1;ratioP1;P1;durP2;ratioP2;P2;SDS_P1;SDS_P2;PMS_P1;PMS_P2;Temp;Humidity;BMP_temperature;BMP_pressure;BME280_temperature;BME280_humidity;BME280_pressure;Samples;Min_cycle;Max_cycle;Signal;HPM_P1;HPM_P2
2022/01/04 00:01:13;;;;;;;24.98;4.60;;;8.50;99.90;;;;;;6125734;23;19917;-89
2022/01/04 00:03:40;;;;;;;24.00;4.77;;;8.50;99.90;;;;;;6127769;23;20080;-92
2022/01/04 00:06:08;;;;;;;19.25;4.38;;;8.40;99.90;;;;;;6127494;23;20250;-96
2022/01/04 00:08:33;;;;;;;;;;;8.40;99.90;;;;;;6103380;23;20025;-95
2022/01/04 00:13:54;;;;;;;26.92;5.15;;;8.40;99.90;;;;;;6049467;23;20031;-90
2022/01/04 00:16:19;;;;;;;33.90;5.40;;;8.30;99.90;;;;;;6126812;23;20076;-93
2022/01/04 00:18:46;;;;;;;21.77;4.57;;;8.30;99.90;;;;;;6126840;23;20072;-93
2022/01/04 00:21:12;;;;;;;25.77;4.60;;;8.30;99.90;;;;;;6102549;23;20053;-93
2022/01/04 00:23:38;;;;;;;18.40;4.80;;;8.30;99.90;;;;;;6102267;23;20014;-96
2022/01/04 00:26:04;;;;;;;29.38;6.60;;;8.30;99.90;;;;;;6126699;23;20022;-91
2022/01/04 00:28:30;;;;;;;25.77;5.38;;;8.20;99.90;;;;;;6126977;23;20030;-92
2022/01/04 00:30:56;;;;;;;22.13;5.33;;;8.20;99.90;;;;;;6145228;23;20045;-93
2022/01/04 00:33:22;;;;;;;23.13;5.07;;;8.20;99.90;;;;;;6131805;23;20088;-96
2022/01/04 00:35:47;;;;;;;23.83;4.90;;;8.20;99.90;;;;;;6131483;23;20245;-94
2022/01/04 00:38:33;;;;;;;25.47;5.30;;;8.10;99.90;;;;;;6156864;23;20014;-95
2022/01/04 00:40:59;;;;;;;29.70;5.32;;;8.20;99.90;;;;;;6155920;23;20028;-95
2022/01/04 00:43:45;;;;;;;26.57;5.40;;;8.10;99.90;;;;;;6131940;23;20018;-90
2022/01/04 00:46:16;;;;;;;23.80;4.68;;;8.10;99.90;;;;;;6131232;23;20024;-89
2022/01/04 00:51:27;;;;;;;25.67;4.72;;;8.10;99.90;;;;;;6155431;23;20021;-92
2022/01/04 00:53:52;;;;;;;30.37;4.43;;;8.10;99.90;;;;;;6131193;23;20084;-88
2022/01/04 00:56:18;;;;;;;20.73;4.57;;;8.10;99.90;;;;;;6131215;23;20013;-93
2022/01/04 01:02:53;;;;;;;21.80;4.40;;;8.10;99.90;;;;;;6157479;23;20020;-92
2022/01/04 01:05:19;;;;;;;28.52;6.05;;;8.10;99.90;;;;;;6130937;23;20014;-92
2022/01/04 01:07:45;;;;;;;24.98;5.53;;;8.10;99.90;;;;;;6157313;23;20018;-93
2022/01/04 01:13:14;;;;;;;26.30;6.43;;;8.10;99.90;;;;;;6159830;23;20025;-90
2022/01/04 01:15:42;;;;;;;33.58;6.95;;;8.10;99.90;;;;;;6132343;23;20038;-95
2022/01/04 01:18:08;;;;;;;34.67;6.45;;;8.10;99.90;;;;;;6156726;23;20435;-90
2022/01/04 01:20:55;;;;;;;25.67;6.38;;;8.00;99.90;;;;;;6132784;23;20018;-95
2022/01/04 01:23:21;;;;;;;25.65;6.85;;;8.10;99.90;;;;;;6158827;23;20439;-88
2022/01/04 01:25:47;;;;;;;29.00;6.88;;;8.00;99.90;;;;;;6132223;23;20021;-94
2022/01/04 01:28:14;;;;;;;28.53;6.63;;;8.10;99.90;;;;;;6158552;23;20343;-94
2022/01/04 01:30:42;;;;;;;27.25;6.85;;;8.10;99.90;;;;;;6131209;23;20267;-94
2022/01/04 01:33:08;;;;;;;26.52;6.63;;;8.10;99.90;;;;;;6158381;23;20097;-96
2022/01/04 01:35:37;;;;;;;29.27;8.13;;;8.10;99.90;;;;;;6157384;23;20013;-90
2022/01/04 01:38:03;;;;;;;30.80;7.22;;;8.10;99.90;;;;;;6131631;23;20022;-95
2022/01/04 01:40:29;;;;;;;31.92;6.45;;;8.10;99.90;;;;;;6156164;23;20022;-95
2022/01/04 01:42:55;;;;;;;31.50;7.50;;;8.10;99.90;;;;;;6157407;23;20018;-95
2022/01/04 01:45:23;;;;;;;29.38;8.18;;;8.10;99.90;;;;;;6155645;23;20017;-90
2022/01/04 01:47:52;;;;;;;26.05;7.25;;;8.10;99.90;;;;;;6155506;23;20040;-86
2022/01/04 01:50:18;;;;;;;25.75;7.43;;;8.10;99.90;;;;;;6130821;23;20452;-92
2022/01/04 01:52:46;;;;;;;;;;;8.20;99.90;;;;;;6132061;23;20534;-90
2022/01/04 01:55:13;;;;;;;33.70;7.47;;;8.10;99.90;;;;;;6155746;23;19916;-89
2022/01/04 01:57:39;;;;;;;26.42;7.13;;;8.10;99.90;;;;;;6155300;23;20020;-90
2022/01/04 02:05:37;;;;;;;27.48;7.07;;;8.20;99.90;;;;;;6156759;23;20025;-96
2022/01/04 02:08:21;;;;;;;;;;;8.20;99.90;;;;;;6107063;23;20049;-89
2022/01/04 02:10:47;;;;;;;30.55;7.35;;;8.20;99.90;;;;;;6106880;23;19916;-91
2022/01/04 02:13:14;;;;;;;27.75;7.07;;;8.20;99.90;;;;;;6130800;23;20025;-92
2022/01/04 02:15:39;;;;;;;33.03;7.65;;;8.20;99.90;;;;;;6130649;23;20071;-94
2022/01/04 02:18:06;;;;;;;26.40;8.13;;;8.20;99.90;;;;;;6106242;23;20018;-93
2022/01/04 02:20:32;;;;;;;25.95;7.03;;;8.20;99.90;;;;;;6131330;23;20439;-94
2022/01/04 02:23:19;;;;;;;38.10;8.00;;;8.20;99.90;;;;;;6107294;23;20027;-91
2022/01/04 02:25:45;;;;;;;27.70;6.88;;;8.20;99.90;;;;;;6111116;23;20072;-95
2022/01/04 02:28:12;;;;;;;26.42;6.78;;;8.20;99.90;;;;;;6141843;23;20056;-94
2022/01/04 02:30:37;;;;;;;28.25;6.13;;;8.20;99.90;;;;;;6121625;23;20451;-95
2022/01/04 02:33:03;;;;;;;27.63;6.27;;;8.20;99.90;;;;;;6107269;23;20014;-92
2022/01/04 02:35:30;;;;;;;28.73;6.23;;;8.20;99.90;;;;;;6106649;23;20024;-90
2022/01/04 02:37:58;;;;;;;33.47;6.30;;;8.20;99.90;;;;;;6131081;23;20018;-92
2022/01/04 02:40:28;;;;;;;29.15;6.22;;;8.20;99.90;;;;;;6132542;23;20040;-92
2022/01/04 02:42:54;;;;;;;27.30;6.78;;;8.20;99.90;;;;;;6133835;23;20017;-93
2022/01/04 02:45:20;;;;;;;28.00;6.68;;;8.20;99.90;;;;;;6108352;23;20040;-91
2022/01/04 02:47:46;;;;;;;28.42;6.43;;;8.20;99.90;;;;;;6107637;23;20455;-93
2022/01/04 02:50:15;;;;;;;31.73;6.57;;;8.20;99.90;;;;;;6108635;23;20093;-96
2022/01/04 02:52:41;;;;;;;27.42;6.43;;;8.30;99.90;;;;;;6132255;23;20517;-95
2022/01/04 02:55:09;;;;;;;32.53;6.73;;;8.20;99.90;;;;;;6136383;23;20017;-96
2022/01/04 02:57:36;;;;;;;27.73;7.10;;;8.20;99.90;;;;;;6108781;23;20096;-91
2022/01/04 03:00:04;;;;;;;28.42;6.60;;;8.30;99.90;;;;;;6109147;23;20013;-93
2022/01/04 03:02:30;;;;;;;35.35;7.85;;;8.20;99.90;;;;;;6117033;23;20021;-92
2022/01/04 03:05:06;;;;;;;28.65;6.75;;;8.30;99.90;;;;;;6141857;23;20017;-94
2022/01/04 03:07:32;;;;;;;;;;;8.30;99.90;;;;;;6095064;23;20484;-94
2022/01/04 03:09:58;;;;;;;29.55;6.28;;;8.30;99.90;;;;;;6120140;23;19917;-94
2022/01/04 03:12:25;;;;;;;34.43;7.03;;;8.20;99.90;;;;;;6117130;23;20351;-96
2022/01/04 03:14:53;;;;;;;34.53;6.90;;;8.30;99.90;;;;;;6115223;23;20027;-93
2022/01/04 03:17:19;;;;;;;27.33;6.13;;;8.20;99.90;;;;;;6050929;23;20017;-95
2022/01/04 03:19:53;;;;;;;;;;;8.30;99.90;;;;;;6122542;23;20021;-91
2022/01/04 03:22:20;;;;;;;29.20;6.85;;;8.30;99.90;;;;;;6115056;23;19920;-95
2022/01/04 03:24:51;;;;;;;24.75;6.32;;;8.30;99.90;;;;;;6124898;23;20025;-91
2022/01/04 03:27:17;;;;;;;35.55;7.65;;;8.30;99.90;;;;;;6143294;23;20017;-93
2022/01/04 03:29:43;;;;;;;27.77;7.22;;;8.30;99.90;;;;;;6109806;23;20048;-92
2022/01/04 03:32:10;;;;;;;27.07;6.57;;;8.30;99.90;;;;;;6108944;23;20447;-96
2022/01/04 03:34:35;;;;;;;;;;;8.30;99.90;;;;;;6110403;23;20014;-95
2022/01/04 03:37:01;;;;;;;39.95;8.73;;;8.30;99.90;;;;;;6113830;23;19916;-96
2022/01/04 03:39:27;;;;;;;28.93;7.23;;;8.30;99.90;;;;;;6111589;23;20439;-92
2022/01/04 03:41:53;;;;;;;31.07;7.77;;;8.40;99.90;;;;;;6107543;23;20271;-90
2022/01/04 03:44:20;;;;;;;27.10;6.37;;;8.40;99.90;;;;;;6107514;23;20072;-94
2022/01/04 03:46:51;;;;;;;25.48;6.55;;;8.30;99.90;;;;;;6107573;23;20017;-94
2022/01/04 03:49:17;;;;;;;30.80;6.65;;;8.30;99.90;;;;;;6158294;23;20551;-89
2022/01/04 03:51:43;;;;;;;29.88;7.03;;;8.30;99.90;;;;;;6107316;23;20048;-90
2022/01/04 03:54:09;;;;;;;29.38;7.45;;;8.30;99.90;;;;;;6107525;23;20029;-92
2022/01/04 03:56:35;;;;;;;32.83;6.90;;;8.30;99.90;;;;;;6107690;23;20017;-92
2022/01/04 03:59:01;;;;;;;30.83;7.83;;;8.30;99.90;;;;;;6107525;23;20108;-90
2022/01/04 04:01:26;;;;;;;32.27;7.27;;;8.30;99.90;;;;;;6107282;23;20017;-90
2022/01/04 04:03:53;;;;;;;32.33;7.20;;;8.30;99.90;;;;;;6107150;23;20024;-91
2022/01/04 04:06:19;;;;;;;28.58;7.40;;;8.30;99.90;;;;;;6107959;23;20374;-91
2022/01/04 04:08:45;;;;;;;43.93;8.40;;;8.30;99.90;;;;;;6144641;23;20033;-91
2022/01/04 04:11:11;;;;;;;29.03;6.93;;;8.30;99.90;;;;;;6122969;23;20021;-89
2022/01/04 04:13:37;;;;;;;32.58;6.97;;;8.30;99.90;;;;;;6124451;23;20026;-91
2022/01/04 04:16:03;;;;;;;32.87;7.70;;;8.30;99.90;;;;;;6119233;23;20018;-91
2022/01/04 04:18:28;;;;;;;26.70;6.40;;;8.30;99.90;;;;;;6118207;23;20021;-91
2022/01/04 04:20:55;;;;;;;26.87;6.60;;;8.30;99.90;;;;;;6118109;23;20025;-89
2022/01/04 04:23:21;;;;;;;;;;;8.30;99.90;;;;;;6120226;23;20021;-95
2022/01/04 04:25:47;;;;;;;28.15;6.85;;;8.30;99.90;;;;;;6139432;23;20231;-91
2022/01/04 04:28:12;;;;;;;33.00;7.77;;;8.30;99.90;;;;;;6139297;23;20016;-92
2022/01/04 04:30:38;;;;;;;39.17;7.53;;;8.30;99.90;;;;;;6169310;23;20022;-95
2022/01/04 04:33:04;;;;;;;23.87;6.70;;;8.30;99.90;;;;;;6114499;23;20467;-95
2022/01/04 04:35:31;;;;;;;27.90;6.67;;;8.30;99.90;;;;;;6110214;23;20072;-93
2022/01/04 04:37:57;;;;;;;;;;;8.30;99.90;;;;;;6115428;23;20068;-95
2022/01/04 04:40:23;;;;;;;27.45;7.15;;;8.30;99.90;;;;;;6107123;23;19913;-93
2022/01/04 04:42:49;;;;;;;27.40;7.30;;;8.30;99.90;;;;;;6107094;23;20036;-93
2022/01/04 04:45:15;;;;;;;34.03;8.13;;;8.30;99.90;;;;;;6106836;23;20021;-93
2022/01/04 04:47:40;;;;;;;35.97;8.43;;;8.30;99.90;;;;;;6107589;23;20049;-91
2022/01/04 04:50:07;;;;;;;26.40;7.33;;;8.30;99.90;;;;;;6107560;23;20447;-95
2022/01/04 04:52:35;;;;;;;29.17;7.82;;;8.30;99.90;;;;;;6113425;23;20024;-96
2022/01/04 04:55:02;;;;;;;27.67;7.27;;;8.30;99.90;;;;;;6113084;23;20013;-96
2022/01/04 04:57:28;;;;;;;35.38;7.03;;;8.30;99.90;;;;;;6115590;23;20017;-95
2022/01/04 04:59:54;;;;;;;25.97;7.90;;;8.30;99.90;;;;;;6116328;23;20005;-93
2022/01/04 05:02:20;;;;;;;25.83;6.77;;;8.30;99.90;;;;;;6113966;23;20458;-95
2022/01/04 05:07:28;;;;;;;30.23;8.45;;;8.30;99.90;;;;;;6185186;23;20359;-92
2022/01/04 05:09:54;;;;;;;31.25;8.82;;;8.30;99.90;;;;;;6176238;23;20021;-92
2022/01/04 05:12:20;;;;;;;28.63;8.70;;;8.30;99.90;;;;;;6152823;23;20056;-91
2022/01/04 05:14:46;;;;;;;30.93;9.00;;;8.30;99.90;;;;;;6141401;23;20020;-93
2022/01/04 05:17:16;;;;;;;33.50;8.13;;;8.30;99.90;;;;;;6150720;23;20032;-96
2022/01/04 05:19:43;;;;;;;26.92;7.85;;;8.30;99.90;;;;;;6152029;23;20001;-96
2022/01/04 05:22:09;;;;;;;33.13;8.48;;;8.30;99.90;;;;;;6173528;23;20001;-96
2022/01/04 05:24:35;;;;;;;42.10;9.27;;;8.30;99.90;;;;;;6140390;23;20071;-95
2022/01/04 05:27:01;;;;;;;31.23;9.30;;;8.30;99.90;;;;;;6160567;23;20017;-95
2022/01/04 05:29:27;;;;;;;27.55;8.23;;;8.30;99.90;;;;;;6191047;23;20256;-95
2022/01/04 05:31:53;;;;;;;29.97;8.93;;;8.30;99.90;;;;;;6167588;23;20073;-93
2022/01/04 05:34:18;;;;;;;36.37;8.90;;;8.30;99.90;;;;;;6191032;23;20091;-93
2022/01/04 05:36:44;;;;;;;33.67;9.00;;;8.40;99.90;;;;;;6169967;23;20083;-89
2022/01/04 05:41:45;;;;;;;34.35;10.32;;;8.30;99.90;;;;;;6184077;23;20032;-94
2022/01/04 05:44:11;;;;;;;31.63;9.20;;;8.30;99.90;;;;;;6113729;23;20104;-96
2022/01/04 05:46:37;;;;;;;33.47;9.33;;;8.30;99.90;;;;;;6135240;23;20017;-91
2022/01/04 05:49:03;;;;;;;31.43;8.97;;;8.30;99.90;;;;;;6131452;23;20068;-90
2022/01/04 05:54:55;;;;;;;39.08;9.68;;;8.30;99.90;;;;;;6126132;23;20022;-91
2022/01/04 05:57:22;;;;;;;33.70;8.75;;;8.30;99.90;;;;;;6109424;23;20014;-93
2022/01/04 05:59:47;;;;;;;;;;;8.30;99.90;;;;;;6109350;23;20017;-90
2022/01/04 06:02:13;;;;;;;34.50;8.35;;;8.20;99.90;;;;;;6111231;23;19917;-90
2022/01/04 06:04:39;;;;;;;29.70;9.13;;;8.20;99.90;;;;;;6110354;23;20020;-96
2022/01/04 06:07:05;;;;;;;25.75;8.93;;;8.20;99.90;;;;;;6110638;23;20013;-93
2022/01/04 06:10:24;;;;;;;29.10;9.70;;;8.20;99.90;;;;;;6163399;23;20048;-93
2022/01/04 06:16:03;;;;;;;29.90;11.52;;;8.20;99.90;;;;;;6131108;23;20029;-93
2022/01/04 06:18:28;;;;;;;35.92;10.60;;;8.20;99.90;;;;;;6108233;23;20018;-93
2022/01/04 06:20:56;;;;;;;30.73;10.37;;;8.20;99.90;;;;;;6113535;23;20013;-94
2022/01/04 06:23:48;;;;;;;28.83;9.93;;;8.20;99.90;;;;;;6117672;23;20041;-93
2022/01/04 06:26:16;;;;;;;34.10;11.38;;;8.20;99.90;;;;;;6124875;23;20029;-95
2022/01/04 06:28:43;;;;;;;29.63;9.98;;;8.20;99.90;;;;;;6165765;23;20026;-89
2022/01/04 06:31:09;;;;;;;32.67;10.17;;;8.20;99.90;;;;;;6117258;23;20022;-96
2022/01/04 06:33:54;;;;;;;33.30;10.40;;;8.20;99.90;;;;;;6133821;23;20022;-94
2022/01/04 06:39:01;;;;;;;28.55;10.00;;;8.20;99.90;;;;;;6170222;23;20473;-87
2022/01/04 06:44:06;;;;;;;29.30;9.90;;;8.20;99.90;;;;;;6137869;23;20029;-95
2022/01/04 06:46:32;;;;;;;34.85;9.73;;;8.20;99.90;;;;;;6146351;23;20025;-90
2022/01/04 06:49:31;;;;;;;33.40;9.25;;;8.20;99.90;;;;;;6149225;23;20443;-89
2022/01/04 06:52:27;;;;;;;29.70;9.18;;;8.20;99.90;;;;;;6115950;23;20014;-93
2022/01/04 06:54:53;;;;;;;31.20;8.57;;;8.20;99.90;;;;;;6107945;23;20054;-87
2022/01/04 06:57:19;;;;;;;29.70;8.17;;;8.20;99.90;;;;;;6139826;23;20017;-92
2022/01/04 06:59:45;;;;;;;34.00;7.90;;;8.20;99.90;;;;;;6174240;23;20045;-87
2022/01/04 07:02:11;;;;;;;25.97;7.57;;;8.20;99.90;;;;;;6145542;23;20026;-92
2022/01/04 07:04:56;;;;;;;29.20;7.13;;;8.20;99.90;;;;;;6115990;23;20021;-93
2022/01/04 07:12:33;;;;;;;25.35;6.82;;;8.20;99.90;;;;;;6104942;23;20026;-94
2022/01/04 07:14:58;;;;;;;27.00;6.40;;;8.20;99.90;;;;;;6127701;23;20048;-93
2022/01/04 07:17:27;;;;;;;25.80;5.63;;;8.20;99.90;;;;;;6128986;23;20033;-95
2022/01/04 07:19:56;;;;;;;18.08;4.90;;;8.20;99.90;;;;;;6105887;23;20018;-96
2022/01/04 07:22:27;;;;;;;26.83;5.23;;;8.20;99.90;;;;;;6140298;23;20066;-94
2022/01/04 07:25:01;;;;;;;23.95;4.93;;;8.20;99.90;;;;;;6131587;23;20022;-96
2022/01/04 07:30:04;;;;;;;25.92;5.22;;;8.20;99.90;;;;;;6177206;23;20025;-94
2022/01/04 07:32:30;;;;;;;14.15;2.47;;;8.20;99.90;;;;;;6141782;23;20021;-95
2022/01/04 07:35:01;;;;;;;10.07;2.20;;;8.20;99.90;;;;;;6142765;23;20394;-96
2022/01/04 07:37:27;;;;;;;11.35;2.10;;;8.10;99.90;;;;;;6153695;23;20032;-94
2022/01/04 07:39:53;;;;;;;9.77;2.33;;;8.10;99.90;;;;;;6154576;23;20068;-93
2022/01/04 07:42:20;;;;;;;19.67;3.87;;;8.00;99.90;;;;;;6155484;23;20051;-94
2022/01/04 07:44:46;;;;;;;17.05;3.88;;;8.00;99.90;;;;;;6147978;23;20028;-90
2022/01/04 07:47:11;;;;;;;16.97;4.27;;;7.90;99.90;;;;;;6156266;23;20068;-87
2022/01/04 07:57:46;;;;;;;19.63;4.50;;;7.90;99.90;;;;;;6169606;23;20025;-87
2022/01/04 08:02:48;;;;;;;20.42;4.80;;;7.90;99.90;;;;;;6125936;23;20030;-89
2022/01/04 08:05:15;;;;;;;20.63;4.33;;;7.90;99.90;;;;;;6129298;23;20036;-93
2022/01/04 08:10:19;;;;;;;21.92;4.70;;;7.90;99.90;;;;;;6167456;23;20087;-91
2022/01/04 08:12:44;;;;;;;23.55;5.35;;;8.00;99.90;;;;;;6152291;23;20010;-94
2022/01/04 08:18:09;;;;;;;28.10;4.60;;;7.90;99.90;;;;;;6159268;23;20025;-87
2022/01/04 08:20:58;;;;;;;28.95;5.50;;;7.90;99.90;;;;;;6210000;23;20019;-88
2022/01/04 08:23:45;;;;;;;25.90;5.20;;;8.00;99.90;;;;;;6183888;23;20028;-93
2022/01/04 08:31:27;;;;;;;20.63;4.43;;;7.90;99.90;;;;;;6176700;23;20071;-93
2022/01/04 08:34:20;;;;;;;20.10;4.15;;;7.90;99.90;;;;;;6157603;23;20029;-91
2022/01/04 08:37:04;;;;;;;28.75;4.93;;;7.90;99.90;;;;;;6162578;23;20021;-94
2022/01/04 08:51:41;;;;;;;19.23;4.10;;;7.90;99.90;;;;;;6139525;23;20328;-95
2022/01/04 08:54:07;;;;;;;22.85;4.25;;;7.90;99.90;;;;;;6082651;23;20100;-96
2022/01/04 08:56:33;;;;;;;15.07;3.37;;;7.90;99.90;;;;;;6080406;23;20049;-95
2022/01/04 08:58:59;;;;;;;12.15;1.98;;;7.90;99.90;;;;;;6080267;23;20029;-94
2022/01/04 09:01:25;;;;;;;8.43;1.05;;;7.80;99.90;;;;;;6087251;23;20448;-94
2022/01/04 09:03:51;;;;;;;8.83;0.93;;;7.80;99.90;;;;;;6081647;23;20024;-90
2022/01/04 09:06:19;;;;;;;24.83;1.93;;;7.60;99.90;;;;;;6078113;23;20061;-88
2022/01/04 09:08:46;;;;;;;7.40;1.08;;;7.60;99.90;;;;;;6077874;23;20201;-93
2022/01/04 09:11:12;;;;;;;10.80;0.80;;;7.50;99.90;;;;;;6101815;23;20333;-92
2022/01/04 09:13:42;;;;;;;7.25;0.80;;;7.40;99.90;;;;;;6077431;23;20022;-89
2022/01/04 09:18:46;;;;;;;9.07;0.90;;;7.30;99.90;;;;;;6127395;23;20025;-93
2022/01/04 09:21:14;;;;;;;9.40;0.90;;;7.20;99.90;;;;;;6127225;23;20104;-90
2022/01/04 09:23:40;;;;;;;12.27;1.20;;;7.20;99.90;;;;;;6101405;23;20018;-91
2022/01/04 09:26:06;;;;;;;8.57;1.55;;;7.20;99.90;;;;;;6077479;23;20053;-92
2022/01/04 09:28:32;;;;;;;9.85;1.17;;;7.20;99.90;;;;;;6101381;23;20018;-92
2022/01/04 09:31:00;;;;;;;8.07;1.53;;;7.10;99.90;;;;;;6077420;23;20022;-90
2022/01/04 09:33:25;;;;;;;9.80;0.90;;;7.10;99.90;;;;;;6101059;23;20258;-90
2022/01/04 09:35:51;;;;;;;7.00;1.13;;;7.10;99.90;;;;;;6100767;23;20024;-91
2022/01/04 09:38:18;;;;;;;9.57;0.90;;;7.10;99.90;;;;;;6101304;23;20032;-92
2022/01/04 09:40:45;;;;;;;;;;;7.00;99.90;;;;;;6101945;23;20018;-92
2022/01/04 09:43:11;;;;;;;4.57;0.70;;;7.00;99.90;;;;;;6077244;23;20000;-92
2022/01/04 09:45:37;;;;;;;9.82;1.30;;;6.90;99.90;;;;;;6077397;23;20021;-93
2022/01/04 09:48:04;;;;;;;9.07;1.00;;;6.90;99.90;;;;;;6077488;23;20018;-91
2022/01/04 09:50:32;;;;;;;6.65;0.70;;;6.90;99.90;;;;;;6077706;23;20112;-93
2022/01/04 09:52:59;;;;;;;3.15;0.57;;;6.80;99.90;;;;;;6100979;23;20052;-89
2022/01/04 09:55:25;;;;;;;;;;;6.80;99.90;;;;;;6101752;23;20053;-91
2022/01/04 09:57:50;;;;;;;4.10;0.60;;;6.80;99.90;;;;;;6101406;23;19924;-92
2022/01/04 10:00:18;;;;;;;9.30;1.07;;;6.80;99.90;;;;;;6101692;23;20018;-90
2022/01/04 10:02:46;;;;;;;6.22;0.95;;;6.80;99.90;;;;;;6077200;23;20021;-91
2022/01/04 10:05:18;;;;;;;6.80;0.98;;;6.70;99.90;;;;;;6077314;23;20022;-90
2022/01/04 10:07:45;;;;;;;9.00;0.95;;;6.70;99.90;;;;;;6100851;23;20014;-88
2022/01/04 10:10:17;;;;;;;5.32;0.70;;;6.70;99.90;;;;;;6077133;23;20097;-90
2022/01/04 10:12:59;;;;;;;4.38;0.50;;;6.60;99.90;;;;;;6077033;23;20024;-89
2022/01/04 10:15:36;;;;;;;6.60;0.75;;;6.50;99.90;;;;;;6101043;23;20093;-91
2022/01/04 10:18:12;;;;;;;5.10;0.80;;;6.40;99.90;;;;;;6100816;23;20043;-90
2022/01/04 10:20:38;;;;;;;5.22;1.23;;;6.40;99.90;;;;;;6076890;23;20261;-89
2022/01/04 10:23:16;;;;;;;5.72;0.70;;;6.30;99.90;;;;;;6076895;23;20049;-91
2022/01/04 10:25:41;;;;;;;;;;;6.30;99.90;;;;;;6101261;23;20032;-90
2022/01/04 10:28:07;;;;;;;5.82;0.50;;;6.20;99.90;;;;;;6100825;23;19917;-90
2022/01/04 10:30:35;;;;;;;6.60;0.65;;;6.20;99.90;;;;;;6101057;23;20018;-89
2022/01/04 10:33:05;;;;;;;2.47;0.32;;;6.20;99.90;;;;;;6076845;23;20030;-92
2022/01/04 10:35:36;;;;;;;3.63;0.50;;;6.30;99.90;;;;;;6076786;23;20448;-91
2022/01/04 10:38:17;;;;;;;6.07;0.70;;;6.30;99.90;;;;;;6100353;23;20030;-89
2022/01/04 10:40:51;;;;;;;3.65;0.80;;;6.30;99.90;;;;;;6126762;23;20013;-90
2022/01/04 10:43:20;;;;;;;3.22;0.55;;;6.40;99.90;;;;;;6100809;23;20029;-91
2022/01/04 10:45:47;;;;;;;3.15;0.82;;;6.40;99.90;;;;;;6100641;23;20022;-91
2022/01/04 10:48:27;;;;;;;3.78;0.63;;;6.40;99.90;;;;;;6076822;23;20084;-89
2022/01/04 10:51:04;;;;;;;6.03;0.40;;;6.50;99.90;;;;;;6100872;23;20026;-87
2022/01/04 10:53:34;;;;;;;2.78;0.45;;;6.50;99.90;;;;;;6100581;23;20025;-90
2022/01/04 10:56:04;;;;;;;4.10;0.60;;;6.50;99.90;;;;;;6100788;23;20026;-89
2022/01/04 10:58:34;;;;;;;4.40;0.60;;;6.40;99.90;;;;;;6101168;23;20089;-89
2022/01/04 11:01:05;;;;;;;4.75;0.43;;;6.40;99.90;;;;;;6076949;23;20018;-92
2022/01/04 11:03:33;;;;;;;2.40;0.28;;;6.30;99.90;;;;;;6126114;23;20045;-89
2022/01/04 11:06:09;;;;;;;4.75;0.30;;;6.20;99.90;;;;;;6126600;23;20097;-91
2022/01/04 11:08:35;;;;;;;1.10;0.30;;;6.20;99.90;;;;;;6105428;23;20018;-96
2022/01/04 11:11:02;;;;;;;1.13;0.20;;;6.20;99.90;;;;;;6080664;23;20029;-93
2022/01/04 11:13:28;;;;;;;4.35;0.30;;;6.10;99.90;;;;;;6079562;23;20018;-92
2022/01/04 11:15:55;;;;;;;6.82;0.52;;;6.10;99.90;;;;;;6082263;23;20097;-96
2022/01/04 11:18:36;;;;;;;3.08;0.52;;;6.00;99.90;;;;;;6086654;23;20050;-89
2022/01/04 11:21:04;;;;;;;8.73;0.70;;;6.00;99.90;;;;;;6116369;23;20053;-91
2022/01/04 11:23:33;;;;;;;6.13;0.98;;;5.90;99.90;;;;;;6117400;23;20029;-90
2022/01/04 11:28:40;;;;;;;8.02;0.68;;;5.80;99.90;;;;;;6131200;23;20403;-93
2022/01/04 11:31:31;;;;;;;8.10;0.80;;;5.80;99.90;;;;;;6109858;23;20026;-96
2022/01/04 11:34:12;;;;;;;4.43;0.70;;;5.80;99.90;;;;;;6102437;23;20047;-96
2022/01/04 11:36:41;;;;;;;7.00;0.70;;;5.90;99.90;;;;;;6079371;23;20015;-94
2022/01/04 11:39:30;;;;;;;8.10;0.98;;;5.90;99.90;;;;;;6105035;23;20032;-94
2022/01/04 11:41:57;;;;;;;4.63;0.55;;;5.90;99.90;;;;;;6108160;23;20021;-96
2022/01/04 11:44:26;;;;;;;4.70;0.60;;;5.90;99.90;;;;;;6077637;23;20017;-88
2022/01/04 11:47:27;;;;;;;5.45;0.75;;;5.90;99.90;;;;;;6113342;23;20036;-87
2022/01/04 11:50:10;;;;;;;7.63;1.80;;;6.00;99.90;;;;;;6063428;23;20487;-89
2022/01/04 11:52:42;;;;;;;3.63;0.60;;;6.10;99.90;;;;;;6110290;23;20021;-96
2022/01/04 11:55:21;;;;;;;6.97;0.60;;;6.10;99.90;;;;;;6111227;23;20102;-87
2022/01/04 12:00:39;;;;;;;3.75;0.50;;;6.10;99.90;;;;;;6177177;23;20009;-90
2022/01/04 12:03:45;;;;;;;7.03;0.75;;;6.10;99.90;;;;;;6154803;23;20017;-85
2022/01/04 12:06:13;;;;;;;4.13;0.45;;;6.20;99.90;;;;;;6148637;23;20435;-86
2022/01/04 12:08:54;;;;;;;4.05;0.65;;;6.20;99.90;;;;;;6154389;23;20025;-85
2022/01/04 12:11:39;;;;;;;8.70;0.90;;;6.20;99.90;;;;;;6155658;23;20018;-90
2022/01/04 12:14:28;;;;;;;5.22;0.70;;;6.20;99.90;;;;;;6151137;23;20049;-87
2022/01/04 12:17:07;;;;;;;4.72;0.60;;;6.30;99.90;;;;;;6177460;23;20025;-92
2022/01/04 12:20:08;;;;;;;5.35;0.90;;;6.20;99.90;;;;;;6147553;23;20021;-91
2022/01/04 12:33:37;;;;;;;7.88;1.00;;;6.30;99.90;;;;;;6176771;23;20021;-89
2022/01/04 12:39:57;;;;;;;7.13;0.95;;;6.30;99.90;;;;;;6150361;23;20044;-87
2022/01/04 12:42:26;;;;;;;8.55;0.85;;;6.20;99.90;;;;;;6100568;23;20026;-92
2022/01/04 12:50:20;;;;;;;8.02;1.10;;;6.20;99.90;;;;;;6151546;23;20022;-86
2022/01/04 13:06:04;;;;;;;8.10;0.77;;;6.10;99.90;;;;;;6166354;23;20044;-89
2022/01/04 13:11:13;;;;;;;8.27;1.20;;;6.20;99.90;;;;;;6179779;23;20045;-86
2022/01/04 13:21:35;;;;;;;7.45;0.90;;;6.20;99.90;;;;;;6128778;23;20026;-96
2022/01/04 13:24:01;;;;;;;7.43;0.87;;;6.20;99.90;;;;;;6103420;23;20044;-95
2022/01/04 13:26:26;;;;;;;7.10;0.90;;;6.30;99.90;;;;;;6102587;23;20022;-95
2022/01/04 13:28:57;;;;;;;10.60;1.37;;;6.30;99.90;;;;;;6103756;23;20025;-93
2022/01/04 13:31:23;;;;;;;8.70;1.10;;;6.30;99.90;;;;;;6079540;23;20018;-88
2022/01/04 13:33:51;;;;;;;8.50;0.90;;;6.20;99.90;;;;;;6107737;23;20022;-96
2022/01/04 13:36:17;;;;;;;5.95;1.00;;;6.20;99.90;;;;;;6113352;23;20053;-89
2022/01/04 13:41:32;;;;;;;8.30;0.80;;;6.20;99.90;;;;;;6144509;23;20033;-86
2022/01/04 13:44:05;;;;;;;8.43;0.73;;;6.30;99.90;;;;;;6117481;23;20018;-91
2022/01/04 13:46:34;;;;;;;7.53;1.50;;;6.30;99.90;;;;;;6101762;23;20053;-94
2022/01/04 13:49:13;;;;;;;7.57;1.42;;;6.30;99.90;;;;;;6113750;23;20018;-90
2022/01/04 13:51:42;;;;;;;4.97;0.73;;;6.30;99.90;;;;;;6118897;23;20502;-92
2022/01/04 13:56:44;;;;;;;11.77;1.83;;;6.30;99.90;;;;;;6139325;23;20030;-89
2022/01/04 13:59:24;;;;;;;9.68;1.38;;;6.30;99.90;;;;;;6147601;23;20065;-87
2022/01/04 14:01:58;;;;;;;8.73;1.05;;;6.30;99.90;;;;;;6118739;23;20018;-89
2022/01/04 14:04:24;;;;;;;5.17;0.80;;;6.40;99.90;;;;;;6087165;23;20124;-92
2022/01/04 14:09:33;;;;;;;10.10;1.33;;;6.40;99.90;;;;;;6140577;23;20030;-90
2022/01/04 14:12:12;;;;;;;6.07;1.27;;;6.30;99.90;;;;;;6118763;23;20022;-92
2022/01/04 14:17:32;;;;;;;10.27;0.80;;;6.30;99.90;;;;;;6149543;23;20021;-93
2022/01/04 14:23:08;;;;;;;9.68;1.10;;;6.30;99.90;;;;;;6142780;23;20017;-88
2022/01/04 14:25:37;;;;;;;9.27;1.05;;;6.20;99.90;;;;;;6128145;23;20021;-88
2022/01/04 14:28:26;;;;;;;9.45;1.05;;;6.20;99.90;;;;;;6155768;23;20018;-88
2022/01/04 14:31:20;;;;;;;9.70;1.20;;;6.10;99.90;;;;;;6156193;23;20029;-94
2022/01/04 14:39:12;;;;;;;6.65;0.90;;;6.10;99.90;;;;;;6121211;23;20022;-92
2022/01/04 14:41:40;;;;;;;9.27;0.90;;;6.10;99.90;;;;;;6099603;23;20022;-88
2022/01/04 14:44:23;;;;;;;11.18;1.02;;;6.10;99.90;;;;;;6122932;23;20009;-88
2022/01/04 15:03:02;;;;;;;8.52;1.25;;;5.80;99.90;;;;;;6168871;23;20100;-92
2022/01/04 15:05:30;;;;;;;9.02;1.08;;;5.80;99.90;;;;;;6117458;23;20021;-88
2022/01/04 15:08:04;;;;;;;5.70;0.93;;;5.70;99.90;;;;;;6126878;23;20021;-88
2022/01/04 15:10:53;;;;;;;7.53;1.10;;;5.70;99.90;;;;;;6174934;23;20017;-86
2022/01/04 15:16:14;;;;;;;6.28;0.98;;;5.60;99.90;;;;;;6173057;23;20026;-87
2022/01/04 15:18:47;;;;;;;6.88;1.00;;;5.60;99.90;;;;;;6150032;23;20021;-87
2022/01/04 15:21:21;;;;;;;6.80;1.02;;;5.50;99.90;;;;;;6149380;23;20017;-88
2022/01/04 15:24:13;;;;;;;10.38;1.42;;;5.40;99.90;;;;;;6129239;23;20025;-87
2022/01/04 15:29:41;;;;;;;6.38;1.20;;;5.30;99.90;;;;;;6135172;23;20075;-93
2022/01/04 15:32:08;;;;;;;7.23;0.70;;;5.20;99.90;;;;;;6106020;23;20105;-87
2022/01/04 15:34:34;;;;;;;8.13;1.15;;;5.10;99.90;;;;;;6141896;23;20064;-90
2022/01/04 15:37:04;;;;;;;6.63;1.00;;;5.10;99.90;;;;;;6141636;23;20049;-89
2022/01/04 15:39:35;;;;;;;9.45;1.88;;;5.10;99.90;;;;;;6142542;23;20024;-88
2022/01/04 15:42:11;;;;;;;7.88;1.00;;;5.00;99.90;;;;;;6148236;23;20046;-85
2022/01/04 15:44:57;;;;;;;10.57;1.40;;;4.90;99.90;;;;;;6161915;23;20088;-86
2022/01/04 15:47:26;;;;;;;11.33;1.40;;;4.90;99.90;;;;;;6209326;23;20024;-91
2022/01/04 15:49:52;;;;;;;10.60;2.83;;;4.80;99.90;;;;;;6208544;23;20035;-92
2022/01/04 15:54:53;;;;;;;8.82;1.50;;;4.80;99.90;;;;;;6174210;23;20035;-89
2022/01/04 15:57:19;;;;;;;7.47;1.10;;;4.80;99.90;;;;;;6176605;23;20025;-96
2022/01/04 15:59:45;;;;;;;8.60;1.60;;;4.80;99.90;;;;;;6194804;23;20016;-94